createdAt,value
2019-02-21T00:00:51.451Z,9.50
2019-02-21T00:03:24.520Z,8.28
2019-02-21T00:05:59.193Z,8.90
2019-02-21T00:08:32.547Z,7.78
2019-02-21T00:11:02.848Z,8.80
2019-02-21T00:13:38.851Z,8.33
2019-02-21T00:16:14.787Z,8.65
2019-02-21T00:18:47.590Z,9.88
2019-02-21T00:21:22.253Z,8.33
2019-02-21T00:23:56.140Z,9.38
2019-02-21T00:26:32.439Z,9.60
2019-02-21T00:29:04.534Z,8.95
2019-02-21T00:31:39.893Z,8.88
2019-02-21T00:34:11.098Z,9.15
2019-02-21T00:36:44.528Z,8.85
2019-02-21T00:39:21.594Z,9.08
2019-02-21T00:41:58.361Z,8.28
2019-02-21T00:44:29.267Z,9.63
2019-02-21T00:47:04.673Z,8.93
2019-02-21T00:49:37.901Z,8.70
2019-02-21T00:52:14.307Z,9.45
2019-02-21T00:54:48.931Z,9.70
2019-02-21T00:57:24.049Z,8.70
2019-02-21T01:00:02.662Z,9.18
2019-02-21T01:02:39.449Z,8.93
2019-02-21T01:05:14.821Z,8.75
2019-02-21T01:07:49.131Z,8.78
2019-02-21T01:10:24.896Z,9.35
2019-02-21T01:12:57.590Z,9.28
2019-02-21T01:15:31.380Z,9.13
2019-02-21T01:18:05.519Z,9.43
2019-02-21T01:20:41.387Z,8.75
2019-02-21T01:23:15.986Z,9.18
2019-02-21T01:25:52.542Z,8.75
2019-02-21T01:28:27.437Z,8.65
2019-02-21T01:31:02.522Z,9.03
2019-02-21T01:33:39.466Z,10.43
2019-02-21T01:36:16.454Z,9.13
2019-02-21T01:38:52.851Z,9.15
2019-02-21T01:41:31.865Z,9.13
2019-02-21T01:44:05.420Z,8.98
2019-02-21T01:46:39.392Z,9.53
2019-02-21T01:49:13.586Z,9.90
2019-02-21T01:51:48.378Z,8.70
2019-02-21T01:54:22.401Z,9.67
2019-02-21T01:56:56.543Z,9.30
2019-02-21T01:59:31.052Z,8.90
2019-02-21T02:02:03.868Z,10.20
2019-02-21T02:04:41.058Z,10.10
2019-02-21T02:07:40.385Z,9.35
2019-02-21T02:10:14.319Z,8.87
2019-02-21T02:12:49.153Z,10.03
2019-02-21T02:15:25.964Z,9.27
2019-02-21T02:18:00.321Z,9.43
2019-02-21T02:20:34.824Z,9.23
2019-02-21T02:23:07.508Z,9.10
2019-02-21T02:25:45.184Z,9.03
2019-02-21T02:28:21.798Z,8.70
2019-02-21T02:30:55.513Z,9.73
2019-02-21T02:33:28.572Z,10.13
2019-02-21T02:36:04.185Z,8.90
2019-02-21T02:38:38.693Z,10.10
2019-02-21T02:41:10.514Z,10.03
2019-02-21T02:43:41.562Z,9.47
2019-02-21T02:46:15.366Z,9.63
2019-02-21T02:48:50.338Z,9.33
2019-02-21T02:51:22.636Z,9.93
2019-02-21T02:53:54.647Z,9.40
2019-02-21T02:56:29.781Z,9.90
2019-02-21T02:59:01.680Z,9.60
2019-02-21T03:01:35.488Z,9.83
2019-02-21T03:04:07.633Z,9.60
2019-02-21T03:06:43.504Z,9.73
2019-02-21T03:09:17.094Z,9.83
2019-02-21T03:11:51.939Z,10.43
2019-02-21T03:14:24.449Z,9.40
2019-02-21T03:16:58.773Z,10.03
2019-02-21T03:19:34.361Z,10.50
2019-02-21T03:22:03.241Z,9.57
2019-02-21T03:24:39.879Z,9.27
2019-02-21T03:27:11.253Z,9.83
2019-02-21T03:29:43.679Z,9.93
2019-02-21T03:32:17.006Z,11.07
2019-02-21T03:34:49.967Z,9.47
2019-02-21T03:37:27.905Z,10.17
2019-02-21T03:39:58.206Z,9.83
2019-02-21T03:42:33.988Z,10.83
2019-02-21T03:45:03.839Z,10.53
2019-02-21T03:47:35.119Z,10.00
2019-02-21T03:50:09.991Z,10.17
2019-02-21T03:52:43.026Z,10.03
2019-02-21T03:55:15.237Z,9.97
2019-02-21T03:57:47.274Z,10.33
2019-02-21T04:00:18.885Z,10.87
2019-02-21T04:02:53.199Z,10.53
2019-02-21T04:05:28.733Z,10.07
2019-02-21T04:08:07.324Z,10.13
2019-02-21T04:10:40.834Z,10.70
2019-02-21T04:13:15.173Z,10.13
2019-02-21T04:15:48.109Z,10.50
2019-02-21T04:18:23.192Z,10.43
2019-02-21T04:20:57.064Z,11.27
2019-02-21T04:23:31.226Z,11.57
2019-02-21T04:26:05.076Z,11.57
2019-02-21T04:28:37.213Z,11.73
2019-02-21T04:31:12.421Z,11.57
2019-02-21T04:33:44.962Z,11.67
2019-02-21T04:36:18.395Z,11.83
2019-02-21T04:38:54.497Z,11.30
2019-02-21T04:41:27.492Z,11.67
2019-02-21T04:44:13.224Z,12.17
2019-02-21T04:46:47.681Z,13.00
2019-02-21T04:49:22.274Z,12.93
2019-02-21T04:51:55.097Z,12.73
2019-02-21T04:54:26.323Z,12.23
2019-02-21T04:57:02.737Z,12.90
2019-02-21T04:59:36.526Z,12.37
2019-02-21T05:02:12.637Z,12.33
2019-02-21T05:04:45.500Z,12.07
2019-02-21T05:07:19.060Z,13.30
2019-02-21T05:09:58.004Z,13.20
2019-02-21T05:12:29.079Z,13.20
2019-02-21T05:15:02.890Z,13.13
2019-02-21T05:17:50.353Z,13.13
2019-02-21T05:20:34.993Z,13.10
2019-02-21T05:23:13.326Z,13.17
2019-02-21T05:25:48.310Z,12.83
2019-02-21T05:28:27.655Z,11.83
2019-02-21T05:31:01.147Z,13.23
2019-02-21T05:33:38.687Z,14.13
2019-02-21T05:36:11.838Z,14.00
2019-02-21T05:38:56.154Z,12.53
2019-02-21T05:41:28.765Z,12.87
2019-02-21T05:44:07.192Z,15.17
2019-02-21T05:46:49.211Z,13.90
2019-02-21T05:49:40.073Z,13.30
2019-02-21T05:52:21.043Z,13.70
2019-02-21T05:55:12.133Z,14.03
2019-02-21T05:57:45.698Z,12.77
2019-02-21T06:00:27.301Z,14.67
2019-02-21T06:03:19.271Z,13.97
2019-02-21T06:05:56.404Z,13.73
2019-02-21T06:08:44.116Z,14.23
2019-02-21T06:11:23.465Z,13.67
2019-02-21T06:13:59.218Z,14.20
2019-02-21T06:16:32.957Z,13.30
2019-02-21T06:19:09.031Z,13.33
2019-02-21T06:21:46.752Z,13.10
2019-02-21T06:24:27.139Z,14.13
2019-02-21T06:27:02.426Z,13.57
2019-02-21T06:29:52.905Z,14.43
2019-02-21T06:32:22.176Z,13.90
2019-02-21T06:35:02.667Z,14.38
2019-02-21T06:37:31.945Z,15.20
2019-02-21T06:40:09.630Z,15.07
2019-02-21T06:42:51.574Z,13.93
2019-02-21T06:45:23.813Z,13.20
2019-02-21T06:47:57.266Z,14.00
2019-02-21T06:50:38.925Z,13.03
2019-02-21T06:53:13.732Z,14.00
2019-02-21T06:55:47.685Z,13.50
2019-02-21T06:58:22.439Z,14.10
2019-02-21T07:00:54.849Z,13.63
2019-02-21T07:03:35.251Z,15.60
2019-02-21T07:06:05.467Z,14.30
2019-02-21T07:09:19.882Z,14.47
2019-02-21T07:11:51.641Z,14.43
2019-02-21T07:15:14.912Z,13.20
2019-02-21T07:17:49.413Z,14.10
2019-02-21T07:20:39.845Z,15.17
2019-02-21T07:23:11.389Z,14.43
2019-02-21T07:28:29.535Z,15.10
2019-02-21T07:30:59.298Z,16.13
2019-02-21T07:33:29.338Z,16.00
2019-02-21T07:35:59.474Z,15.83
2019-02-21T07:39:13.663Z,16.77
2019-02-21T07:41:32.767Z,19.50
2019-02-21T07:46:53.394Z,15.57
2019-02-21T07:49:25.469Z,16.00
2019-02-21T07:58:33.937Z,14.87
2019-02-21T08:01:05.341Z,14.30
2019-02-21T08:03:43.892Z,15.63
2019-02-21T08:06:12.969Z,16.80
2019-02-21T08:09:10.209Z,16.13
2019-02-21T08:11:40.086Z,16.30
2019-02-21T08:14:35.095Z,18.43
2019-02-21T08:17:05.616Z,20.33
2019-02-21T08:19:35.999Z,21.90
2019-02-21T08:22:11.990Z,17.20
2019-02-21T08:24:47.948Z,16.30
2019-02-21T08:27:18.200Z,15.93
2019-02-21T08:29:50.481Z,17.60
2019-02-21T08:32:41.482Z,16.70
2019-02-21T08:35:17.124Z,17.07
2019-02-21T08:37:49.730Z,17.30
2019-02-21T08:40:25.147Z,24.00
2019-02-21T08:43:37.105Z,18.73
2019-02-21T08:46:14.434Z,18.03
2019-02-21T08:48:47.740Z,17.90
2019-02-21T08:51:18.400Z,18.80
2019-02-21T08:53:48.324Z,18.17
2019-02-21T08:57:02.183Z,18.17
2019-02-21T08:59:34.708Z,20.07
2019-02-21T09:02:47.187Z,18.67
2019-02-21T09:05:19.037Z,19.00
2019-02-21T09:08:19.812Z,18.30
2019-02-21T09:10:58.925Z,18.67
2019-02-21T09:13:38.574Z,17.63
2019-02-21T09:16:08.319Z,19.20
2019-02-21T09:18:42.375Z,19.73
2019-02-21T09:21:17.527Z,19.40
2019-02-21T09:23:56.779Z,19.47
2019-02-21T09:26:29.733Z,20.95
2019-02-21T09:31:54.103Z,18.93
2019-02-21T09:34:25.618Z,18.17
2019-02-21T09:36:54.656Z,21.77
2019-02-21T09:39:24.974Z,24.10
2019-02-21T09:42:18.099Z,21.93
2019-02-21T09:44:57.995Z,18.37
2019-02-21T09:47:33.116Z,18.40
2019-02-21T09:50:01.059Z,18.23
2019-02-21T09:52:36.848Z,18.47
2019-02-21T09:55:14.635Z,18.70
2019-02-21T09:57:49.459Z,17.23
2019-02-21T10:00:55.447Z,17.00
2019-02-21T10:03:26.074Z,16.80
2019-02-21T10:05:58.415Z,16.57
2019-02-21T10:08:29.173Z,17.20
2019-02-21T10:11:36.207Z,17.97
2019-02-21T10:14:05.985Z,21.30
2019-02-21T10:17:19.332Z,17.67
2019-02-21T10:19:48.942Z,17.67
2019-02-21T10:22:48.383Z,16.40
2019-02-21T10:25:30.709Z,16.20
2019-02-21T10:28:22.355Z,16.27
2019-02-21T10:30:52.769Z,18.85
2019-02-21T10:33:59.250Z,16.57
2019-02-21T10:36:33.038Z,16.07
2019-02-21T10:39:40.275Z,16.70
2019-02-21T10:42:14.806Z,15.83
2019-02-21T10:45:10.101Z,18.90
2019-02-21T10:47:40.730Z,16.73
2019-02-21T10:51:05.373Z,18.92
2019-02-21T10:53:41.078Z,16.20
2019-02-21T10:56:26.627Z,19.82
2019-02-21T10:58:57.985Z,16.47
2019-02-21T11:08:41.878Z,15.67
2019-02-21T11:11:20.349Z,17.40
2019-02-21T11:14:26.660Z,14.83
2019-02-21T11:17:00.419Z,14.83
2019-02-21T11:19:29.624Z,14.67
2019-02-21T11:22:03.094Z,13.40
2019-02-21T11:24:35.415Z,17.97
2019-02-21T11:27:14.509Z,17.17
2019-02-21T11:29:46.221Z,14.53
2019-02-21T11:32:17.971Z,14.57
2019-02-21T11:35:06.133Z,14.20
2019-02-21T11:37:56.082Z,13.83
2019-02-21T11:40:29.243Z,13.70
2019-02-21T11:43:16.385Z,13.33
2019-02-21T11:45:53.974Z,14.60
2019-02-21T11:49:01.095Z,13.80
2019-02-21T11:51:31.506Z,15.27
2019-02-21T11:54:36.556Z,15.63
2019-02-21T11:57:05.798Z,15.57
2019-02-21T11:59:36.391Z,15.73
2019-02-21T12:02:05.613Z,15.77
2019-02-21T12:04:35.376Z,14.83
2019-02-21T12:07:24.095Z,13.93
2019-02-21T12:09:56.655Z,15.20
2019-02-21T12:16:01.070Z,14.73
2019-02-21T12:18:37.993Z,14.23
2019-02-21T12:21:58.375Z,14.90
2019-02-21T12:24:19.933Z,14.63
2019-02-21T12:26:57.208Z,14.67
2019-02-21T12:29:33.653Z,13.83
2019-02-21T12:32:34.763Z,13.83
2019-02-21T12:35:06.524Z,13.00
2019-02-21T12:38:39.853Z,13.83
2019-02-21T12:41:09.466Z,13.73
2019-02-21T12:43:59.509Z,13.63
2019-02-21T12:46:30.580Z,13.00
2019-02-21T12:49:07.315Z,12.93
2019-02-21T12:51:41.118Z,12.07
2019-02-21T12:54:15.595Z,11.97
2019-02-21T12:56:50.388Z,13.83
2019-02-21T12:59:24.587Z,14.90
2019-02-21T13:01:53.709Z,12.97
2019-02-21T13:04:24.674Z,13.23
2019-02-21T13:07:45.095Z,12.67
2019-02-21T13:10:25.086Z,12.67
2019-02-21T13:13:29.891Z,11.33
2019-02-21T13:16:08.038Z,12.67
2019-02-21T13:19:25.844Z,13.20
2019-02-21T13:22:01.382Z,12.47
2019-02-21T13:25:10.667Z,12.27
2019-02-21T13:27:41.606Z,12.47
2019-02-21T13:30:49.288Z,11.97
2019-02-21T13:33:21.093Z,11.57
2019-02-21T13:35:56.102Z,11.43
2019-02-21T13:38:25.540Z,12.50
2019-02-21T13:40:55.789Z,11.60
2019-02-21T13:43:34.225Z,11.37
2019-02-21T13:46:07.155Z,12.07
2019-02-21T13:51:29.722Z,10.70
2019-02-21T13:56:52.857Z,12.93
2019-02-21T14:00:01.778Z,11.87
2019-02-21T14:02:33.142Z,11.63
2019-02-21T14:05:22.979Z,11.03
2019-02-21T14:07:51.561Z,11.67
2019-02-21T14:10:25.078Z,12.27
2019-02-21T14:13:04.869Z,11.73
2019-02-21T14:15:45.082Z,15.83
2019-02-21T14:18:29.233Z,11.30
2019-02-21T14:24:16.337Z,10.40
2019-02-21T14:26:53.097Z,10.93
2019-02-21T14:37:04.970Z,11.50
2019-02-21T14:39:37.118Z,11.10
2019-02-21T14:49:20.197Z,10.43
2019-02-21T14:51:57.792Z,10.53
2019-02-21T14:54:32.297Z,10.53
2019-02-21T14:57:11.245Z,11.00
2019-02-21T15:00:37.659Z,11.50
2019-02-21T15:03:21.243Z,10.10
2019-02-21T15:06:11.688Z,11.23
2019-02-21T15:08:51.359Z,10.93
2019-02-21T15:18:17.219Z,12.07
2019-02-21T15:20:49.812Z,13.35
2019-02-21T15:23:49.818Z,11.67
2019-02-21T15:29:41.706Z,10.57
2019-02-21T15:32:17.862Z,10.87
2019-02-21T15:34:50.265Z,10.10
2019-02-21T15:37:23.039Z,10.60
2019-02-21T15:39:57.040Z,11.50
2019-02-21T15:49:11.845Z,10.57
2019-02-21T15:51:41.649Z,11.27
2019-02-21T15:54:12.612Z,12.10
2019-02-21T15:56:43.346Z,12.73
2019-02-21T15:59:21.796Z,12.20
2019-02-21T16:01:53.741Z,12.20
2019-02-21T16:04:57.913Z,11.80
2019-02-21T16:07:40.763Z,14.40
2019-02-21T16:10:52.864Z,13.17
2019-02-21T16:13:29.666Z,12.53
2019-02-21T16:16:09.529Z,12.13
2019-02-21T16:18:40.244Z,12.40
2019-02-21T16:24:13.291Z,15.93
2019-02-21T16:27:02.469Z,15.50
2019-02-21T16:29:38.143Z,14.67
2019-02-21T16:32:10.837Z,13.63
2019-02-21T16:35:14.307Z,14.63
2019-02-21T16:43:39.009Z,14.90
2019-02-21T16:49:18.287Z,14.63
2019-02-21T16:51:56.122Z,14.00
2019-02-21T16:54:27.795Z,15.27
2019-02-21T16:57:08.969Z,15.87
2019-02-21T17:00:05.449Z,18.20
2019-02-21T17:02:46.586Z,14.33
2019-02-21T17:05:37.752Z,14.40
2019-02-21T17:08:12.449Z,13.17
2019-02-21T17:14:09.502Z,13.90
2019-02-21T17:17:22.954Z,16.50
2019-02-21T17:19:50.351Z,14.13
2019-02-21T17:22:45.271Z,15.33
2019-02-21T17:25:29.199Z,14.27
2019-02-21T17:28:34.103Z,13.83
2019-02-21T17:31:18.672Z,13.00
2019-02-21T17:33:56.542Z,13.60
2019-02-21T17:36:29.291Z,12.43
2019-02-21T17:39:44.100Z,13.47
2019-02-21T17:42:15.511Z,12.90
2019-02-21T17:45:35.287Z,12.77
2019-02-21T17:48:07.391Z,12.57
2019-02-21T17:51:04.903Z,12.60
2019-02-21T17:53:45.749Z,12.13
2019-02-21T17:56:15.626Z,13.30
2019-02-21T17:58:52.495Z,13.37
2019-02-21T18:01:19.220Z,12.97
2019-02-21T18:03:56.305Z,12.73
2019-02-21T18:06:30.488Z,13.33
2019-02-21T18:12:45.177Z,16.00
2019-02-21T18:15:32.402Z,14.27
2019-02-21T18:18:09.784Z,14.53
2019-02-21T18:20:52.154Z,13.87
2019-02-21T18:23:36.142Z,16.57
2019-02-21T18:29:08.748Z,15.23
2019-02-21T18:31:40.354Z,15.10
2019-02-21T18:34:19.042Z,14.57
2019-02-21T18:36:57.235Z,15.60
2019-02-21T18:40:00.018Z,15.00
2019-02-21T18:42:30.531Z,17.17
2019-02-21T18:45:06.403Z,15.63
2019-02-21T18:47:52.655Z,16.30
2019-02-21T18:50:37.196Z,15.77
2019-02-21T18:53:13.637Z,16.97
2019-02-21T18:56:28.452Z,19.47
2019-02-21T18:59:01.144Z,17.97
2019-02-21T19:15:09.102Z,19.50
2019-02-21T19:17:40.166Z,18.43
2019-02-21T19:20:41.791Z,19.00
2019-02-21T19:23:15.579Z,18.67
2019-02-21T19:25:50.752Z,19.07
2019-02-21T19:28:37.236Z,18.93
2019-02-21T19:31:23.999Z,18.73
2019-02-21T19:33:59.359Z,17.87
2019-02-21T19:36:43.149Z,19.70
2019-02-21T19:39:15.820Z,24.50
2019-02-21T19:41:46.877Z,23.50
2019-02-21T19:44:17.078Z,32.27
2019-02-21T19:47:00.153Z,26.87
2019-02-21T19:49:46.349Z,26.37
2019-02-21T19:52:12.352Z,26.10
2019-02-21T19:54:45.368Z,23.83
2019-02-21T19:57:18.275Z,22.17
2019-02-21T20:02:53.198Z,20.13
2019-02-21T20:05:27.734Z,18.93
2019-02-21T20:08:07.806Z,21.97
2019-02-21T20:10:39.978Z,23.17
2019-02-21T20:13:14.861Z,21.97
2019-02-21T20:15:50.253Z,22.00
2019-02-21T20:22:09.361Z,19.70
2019-02-21T20:25:12.087Z,18.90
2019-02-21T20:27:43.380Z,20.23
2019-02-21T20:30:56.428Z,19.50
2019-02-21T20:33:36.186Z,20.73
2019-02-21T20:36:50.440Z,20.67
2019-02-21T20:39:11.496Z,20.87
2019-02-21T20:41:53.498Z,22.17
2019-02-21T20:44:23.734Z,20.33
2019-02-21T20:53:58.295Z,19.70
2019-02-21T20:56:29.220Z,19.97
2019-02-21T20:59:02.282Z,19.00
2019-02-21T21:01:39.356Z,19.43
2019-02-21T21:04:58.071Z,18.53
2019-02-21T21:07:30.897Z,18.77
2019-02-21T21:10:44.035Z,20.77
2019-02-21T21:13:15.679Z,19.03
2019-02-21T21:16:33.084Z,18.20
2019-02-21T21:19:16.337Z,19.13
2019-02-21T21:22:08.091Z,19.57
2019-02-21T21:24:42.891Z,18.53
2019-02-21T21:34:09.289Z,19.83
2019-02-21T21:36:44.151Z,17.53
2019-02-21T21:40:04.709Z,19.57
2019-02-21T21:42:38.905Z,19.60
2019-02-21T21:45:41.304Z,19.87
2019-02-21T21:48:17.310Z,19.53
2019-02-21T21:53:38.779Z,19.53
2019-02-21T21:56:49.505Z,19.00
2019-02-21T21:59:25.048Z,19.23
2019-02-21T22:04:51.485Z,21.23
2019-02-21T22:08:09.483Z,18.63
2019-02-21T22:10:40.197Z,20.07
2019-02-21T22:13:11.464Z,19.93
2019-02-21T22:15:44.674Z,20.17
2019-02-21T22:18:27.629Z,21.70
2019-02-21T22:21:05.140Z,20.00
2019-02-21T22:24:19.778Z,21.10
2019-02-21T22:26:54.119Z,21.43
2019-02-21T22:30:09.427Z,21.83
2019-02-21T22:32:50.703Z,22.87
2019-02-21T22:35:57.185Z,23.10
2019-02-21T22:38:33.238Z,24.10
2019-02-21T22:41:40.872Z,23.13
2019-02-21T22:44:13.753Z,25.60
2019-02-21T22:47:30.468Z,26.57
2019-02-21T22:50:08.532Z,24.50
2019-02-21T22:53:17.128Z,26.00
2019-02-21T22:55:49.645Z,27.77
2019-02-21T23:05:16.358Z,29.40
2019-02-21T23:07:49.295Z,29.10
2019-02-21T23:11:10.671Z,30.00
2019-02-21T23:13:41.194Z,29.47
2019-02-21T23:16:14.299Z,29.20
2019-02-21T23:18:53.757Z,29.27
2019-02-21T23:21:26.834Z,29.70
2019-02-21T23:24:26.282Z,29.30
2019-02-21T23:27:01.424Z,28.93
2019-02-21T23:32:43.947Z,28.73
2019-02-21T23:35:16.100Z,29.80
2019-02-21T23:38:37.436Z,29.67
2019-02-21T23:41:09.755Z,28.67
2019-02-21T23:43:42.152Z,30.17
2019-02-21T23:46:23.141Z,29.03
2019-02-21T23:48:54.410Z,32.00
2019-02-21T23:51:26.260Z,29.43
2019-02-21T23:54:02.978Z,31.80
